Time;durP1;ratioP1;P1;durP2;ratioP2;P2;SDS_P1;SDS_P2;PMS_P1;PMS_P2;Temp;Humidity;BMP_temperature;BMP_pressure;BME280_temperature;BME280_humidity;BME280_pressure;Samples;Min_cycle;Max_cycle;Signal;HPM_P1;HPM_P2
2023/04/05 00:00:53;;;;;;;15.65;8.65;;;0.80;99.90;;;-0.61;100.00;98215.94;5006733;28;20046;-78
2023/04/05 00:03:21;;;;;;;14.25;9.30;;;0.80;99.90;;;-0.57;100.00;98209.16;4986594;28;20042;-78
2023/04/05 00:05:48;;;;;;;15.20;9.45;;;0.80;99.90;;;-0.64;100.00;98209.09;4990185;28;20049;-78
2023/04/05 00:08:22;;;;;;;18.67;9.93;;;0.80;99.90;;;-0.90;100.00;98213.00;5003970;28;20496;-79
2023/04/05 00:10:50;;;;;;;19.85;10.95;;;0.80;99.90;;;-0.77;100.00;98222.53;5005820;28;20046;-79
2023/04/05 00:13:17;;;;;;;15.07;9.50;;;0.70;99.90;;;-0.83;100.00;98219.03;5004584;28;20523;-77
2023/04/05 00:15:44;;;;;;;15.23;9.05;;;0.70;99.90;;;-0.88;100.00;98219.00;5003315;28;20076;-78
2023/04/05 00:18:20;;;;;;;14.68;8.52;;;0.70;99.90;;;-0.94;100.00;98214.66;4986844;28;20060;-78
2023/04/05 00:20:51;;;;;;;12.65;7.88;;;0.60;99.90;;;-1.02;100.00;98213.72;5002803;28;20076;-78
2023/04/05 00:23:20;;;;;;;14.48;8.25;;;0.50;99.90;;;-0.94;100.00;98207.00;4984591;28;20566;-78
2023/04/05 00:25:47;;;;;;;12.85;8.30;;;0.50;99.90;;;-1.04;100.00;98207.72;5003983;28;20116;-79
2023/04/05 00:28:14;;;;;;;14.80;8.23;;;0.40;99.90;;;-1.03;100.00;98203.50;5022100;28;20056;-79
2023/04/05 00:30:41;;;;;;;11.32;6.25;;;0.40;99.90;;;-1.07;100.00;98200.06;5004132;28;20052;-79
2023/04/05 00:33:12;;;;;;;10.30;5.78;;;0.40;99.90;;;-1.03;100.00;98203.50;4990096;28;20132;-78
2023/04/05 00:35:39;;;;;;;10.23;5.22;;;0.40;99.90;;;-1.06;100.00;98192.41;5006061;28;20567;-77
2023/04/05 00:38:06;;;;;;;11.68;6.25;;;0.40;99.90;;;-1.01;100.00;98195.03;5006585;28;20053;-79
2023/04/05 00:40:35;;;;;;;13.02;7.03;;;0.40;99.90;;;-1.11;100.00;98195.75;4988081;28;20140;-78
2023/04/05 00:43:02;;;;;;;14.25;8.00;;;0.40;99.90;;;-1.22;100.00;98195.59;5005623;28;20085;-78
2023/04/05 00:45:29;;;;;;;17.30;9.10;;;0.30;99.90;;;-1.36;100.00;98192.84;4999159;28;20053;-79
2023/04/05 00:47:56;;;;;;;13.23;7.10;;;0.30;99.90;;;-1.25;100.00;98203.19;5002943;28;20057;-78
2023/04/05 00:50:29;;;;;;;10.75;6.85;;;0.30;99.90;;;-1.34;100.00;98187.78;4969941;28;20041;-78
2023/04/05 00:52:57;;;;;;;14.93;6.55;;;0.20;99.90;;;-1.50;100.00;98197.75;4989304;28;20061;-78
2023/04/05 00:55:25;;;;;;;15.18;7.53;;;0.10;99.90;;;-1.49;100.00;98193.50;5004888;28;20084;-78
2023/04/05 00:57:54;;;;;;;14.65;7.70;;;0.00;99.90;;;-1.58;100.00;98195.91;5005691;28;20110;-78
2023/04/05 01:00:22;;;;;;;15.90;7.57;;;0.00;99.90;;;-1.48;100.00;98192.69;5004968;28;20066;-78
2023/04/05 01:03:00;;;;;;;12.95;6.80;;;0.00;99.90;;;-1.36;100.00;98194.56;4987741;28;20110;-77
2023/04/05 01:05:45;;;;;;;16.40;7.97;;;0.10;99.90;;;-1.40;100.00;98188.53;4989574;28;20079;-78
2023/04/05 01:09:09;;;;;;;19.65;8.50;;;0.10;99.90;;;-1.57;100.00;98195.94;5006869;28;20054;-78
2023/04/05 01:11:39;;;;;;;18.55;8.25;;;0.00;99.90;;;-1.54;100.00;98192.59;4984849;28;20150;-78
2023/04/05 01:14:06;;;;;;;15.18;8.40;;;0.00;99.90;;;-1.58;100.00;98189.13;5006240;28;20131;-78
2023/04/05 01:16:33;;;;;;;13.55;6.43;;;-0.10;99.90;;;-1.59;100.00;98178.94;5005405;28;20528;-78
2023/04/05 01:19:02;;;;;;;10.77;5.53;;;-0.10;99.90;;;-1.71;100.00;98174.50;4989618;28;20060;-78
2023/04/05 01:21:38;;;;;;;8.35;4.95;;;-0.10;99.90;;;-1.76;100.00;98165.94;5004669;28;20038;-77
2023/04/05 01:24:51;;;;;;;10.07;6.00;;;-0.10;99.90;;;-1.75;100.00;98178.69;5002867;28;20046;-78
2023/04/05 01:28:22;;;;;;;9.65;6.15;;;-0.20;99.90;;;-1.78;100.00;98170.13;4987090;28;20113;-78
2023/04/05 01:31:01;;;;;;;12.75;7.18;;;-0.20;99.90;;;-1.73;100.00;98166.84;5005371;28;20111;-78
2023/04/05 01:33:39;;;;;;;14.68;7.00;;;-0.30;99.90;;;-1.64;100.00;98165.25;5006403;28;20096;-78
2023/04/05 01:36:44;;;;;;;10.18;5.70;;;-0.20;99.90;;;-1.83;100.00;98169.22;5003218;28;20053;-77
2023/04/05 01:39:14;;;;;;;9.30;5.63;;;-0.30;99.90;;;-1.94;100.00;98175.00;5003649;28;20149;-78
2023/04/05 01:41:42;;;;;;;12.10;6.60;;;-0.30;99.90;;;-2.03;100.00;98176.50;5006054;28;20070;-76
2023/04/05 01:44:10;;;;;;;11.50;7.20;;;-0.40;99.90;;;-2.18;100.00;98175.44;5003555;28;20124;-76
2023/04/05 01:46:37;;;;;;;9.80;5.07;;;-0.50;99.90;;;-2.14;100.00;98183.97;4987848;28;20096;-77
2023/04/05 01:49:04;;;;;;;9.05;5.05;;;-0.50;99.90;;;-2.07;100.00;98178.16;4984299;28;20057;-78
2023/04/05 01:51:31;;;;;;;9.05;5.25;;;-0.40;99.90;;;-1.87;100.00;98181.06;4990155;28;20412;-78
2023/04/05 01:53:59;;;;;;;8.73;4.80;;;-0.40;99.90;;;-1.86;100.00;98167.47;5003114;28;20046;-77
2023/04/05 01:56:26;;;;;;;8.57;4.45;;;-0.40;99.90;;;-2.02;100.00;98162.97;5003065;28;20054;-78
2023/04/05 01:58:53;;;;;;;7.18;3.92;;;-0.40;99.90;;;-2.34;100.00;98164.13;5002422;28;20069;-78
2023/04/05 02:01:20;;;;;;;7.28;4.82;;;-0.50;99.90;;;-2.45;100.00;98160.53;5005895;28;20056;-78
2023/04/05 02:03:49;;;;;;;6.63;3.55;;;-0.60;99.90;;;-2.32;100.00;98159.94;4989441;28;20112;-78
2023/04/05 02:06:19;;;;;;;10.40;4.22;;;-0.70;99.90;;;-2.20;100.00;98160.97;4990763;28;20072;-78
2023/04/05 02:08:46;;;;;;;8.35;4.65;;;-0.70;99.90;;;-2.25;100.00;98163.44;5009213;28;20042;-78
2023/04/05 02:11:13;;;;;;;9.23;4.78;;;-0.70;99.90;;;-2.48;100.00;98159.66;5006213;28;20416;-78
2023/04/05 02:13:40;;;;;;;8.32;4.30;;;-0.80;99.90;;;-2.38;100.00;98159.81;5006445;28;20485;-77
2023/04/05 02:16:08;;;;;;;7.13;3.85;;;-0.80;99.90;;;-2.37;100.00;98159.00;5004904;28;20067;-77
2023/04/05 02:18:37;;;;;;;8.68;4.40;;;-0.80;99.90;;;-2.32;100.00;98157.38;5005545;28;20149;-78
2023/04/05 02:21:09;;;;;;;10.27;3.95;;;-0.80;99.90;;;-2.28;100.00;98149.81;4988132;28;20046;-77
2023/04/05 02:23:37;;;;;;;11.55;4.88;;;-0.80;99.90;;;-2.42;100.00;98149.56;4987564;28;20501;-77
2023/04/05 02:26:04;;;;;;;7.40;3.85;;;-0.80;99.90;;;-2.57;100.00;98153.53;5007169;28;20073;-76
2023/04/05 02:28:31;;;;;;;10.15;3.90;;;-0.80;99.90;;;-2.58;100.00;98148.44;5001623;28;20133;-77
2023/04/05 02:30:58;;;;;;;13.95;4.63;;;-0.90;99.90;;;-2.70;100.00;98150.75;5005362;28;20050;-78
2023/04/05 02:33:26;;;;;;;8.35;4.25;;;-0.90;99.90;;;-2.54;100.00;98155.28;4993395;28;20129;-77
2023/04/05 02:35:55;;;;;;;6.75;3.53;;;-0.90;99.90;;;-2.47;100.00;98157.09;5004054;28;20060;-78
2023/04/05 02:38:23;;;;;;;6.35;3.78;;;-0.90;99.90;;;-2.33;100.00;98153.16;4999445;28;20480;-77
2023/04/05 02:40:50;;;;;;;6.82;3.50;;;-0.90;99.90;;;-2.47;100.00;98146.94;5004733;28;20049;-78
2023/04/05 02:43:17;;;;;;;5.75;3.40;;;-0.90;99.90;;;-2.41;100.00;98152.16;5004940;28;20116;-78
2023/04/05 02:45:44;;;;;;;7.07;3.78;;;-0.80;99.90;;;-2.36;100.00;98148.00;5003937;28;20060;-77
2023/04/05 02:48:12;;;;;;;9.15;3.65;;;-0.80;99.90;;;-2.45;100.00;98146.97;5004941;28;20054;-78
2023/04/05 02:50:40;;;;;;;5.97;3.60;;;-0.80;99.90;;;-2.46;100.00;98146.13;5007834;28;20046;-78
2023/04/05 02:53:08;;;;;;;6.45;3.20;;;-0.90;99.90;;;-2.43;100.00;98143.63;5002617;28;20042;-78
2023/04/05 02:55:35;;;;;;;7.47;3.70;;;-0.80;99.90;;;-2.43;100.00;98145.31;5003619;28;20054;-78
2023/04/05 02:58:02;;;;;;;6.22;3.30;;;-0.80;99.90;;;-2.42;100.00;98144.47;4987988;28;20065;-78
2023/04/05 03:00:30;;;;;;;6.18;2.95;;;-0.90;99.90;;;-2.47;100.00;98144.41;5003922;28;20046;-78
2023/04/05 03:02:57;;;;;;;6.65;3.42;;;-0.90;99.90;;;-2.44;100.00;98133.41;5001888;28;20046;-78
2023/04/05 03:05:26;;;;;;;7.57;3.50;;;-0.90;99.90;;;-2.52;100.00;98139.22;4987493;28;20056;-77
2023/04/05 03:07:53;;;;;;;7.05;3.40;;;-0.90;99.90;;;-2.33;100.00;98140.44;4971478;28;20072;-78
2023/04/05 03:10:27;;;;;;;9.10;2.70;;;-1.00;99.90;;;-2.35;100.00;98137.00;5001977;28;20053;-77
2023/04/05 03:12:54;;;;;;;7.68;3.63;;;-0.90;99.90;;;-2.44;100.00;98141.03;5000145;28;20140;-78
2023/04/05 03:15:21;;;;;;;8.82;3.50;;;-0.90;99.90;;;-2.54;100.00;98140.03;5002913;28;20054;-78
2023/04/05 03:17:48;;;;;;;5.85;3.00;;;-1.00;99.90;;;-2.67;100.00;98144.03;4999836;28;20523;-78
2023/04/05 03:20:16;;;;;;;5.82;3.00;;;-1.00;99.90;;;-2.59;100.00;98137.41;5001833;28;20041;-78
2023/04/05 03:22:43;;;;;;;6.20;2.90;;;-1.00;99.90;;;-2.64;100.00;98145.78;5005970;28;20054;-76
2023/04/05 03:25:11;;;;;;;8.07;3.83;;;-1.00;99.90;;;-2.58;100.00;98138.25;5018706;28;20054;-78
2023/04/05 03:27:38;;;;;;;6.22;3.45;;;-1.00;99.90;;;-2.60;100.00;98140.78;5005543;28;20050;-78
2023/04/05 03:30:06;;;;;;;7.35;3.72;;;-1.00;99.90;;;-2.64;100.00;98133.09;5008437;28;20490;-78
2023/04/05 03:32:34;;;;;;;8.35;3.72;;;-1.00;99.90;;;-2.72;100.00;98144.78;5006724;28;20077;-77
2023/04/05 03:35:01;;;;;;;8.80;3.80;;;-1.10;99.90;;;-2.88;100.00;98143.63;5002464;28;20148;-77
2023/04/05 03:37:28;;;;;;;7.03;3.05;;;-1.20;99.90;;;-2.96;100.00;98146.03;4989662;28;20065;-78
2023/04/05 03:39:55;;;;;;;5.22;3.08;;;-1.20;99.90;;;-2.79;100.00;98151.41;5007308;28;20053;-78
2023/04/05 03:42:22;;;;;;;8.77;3.80;;;-1.20;99.90;;;-2.68;100.00;98151.63;5006895;28;20045;-78
2023/04/05 03:44:52;;;;;;;9.85;3.75;;;-1.20;99.90;;;-2.81;100.00;98151.38;5008710;28;20050;-77
2023/04/05 03:47:19;;;;;;;9.35;4.05;;;-1.20;99.90;;;-2.89;100.00;98145.31;5004232;28;20089;-78
2023/04/05 03:49:47;;;;;;;9.45;4.00;;;-1.20;99.90;;;-3.04;100.00;98145.00;5007219;28;20550;-78
2023/04/05 03:52:14;;;;;;;5.32;3.15;;;-1.30;99.90;;;-3.09;100.00;98144.91;5006503;28;20076;-77
2023/04/05 03:54:41;;;;;;;11.02;3.97;;;-1.30;99.90;;;-3.13;100.00;98143.13;5006286;28;20331;-78
2023/04/05 03:57:08;;;;;;;4.85;3.55;;;-1.40;99.90;;;-2.99;100.00;98144.28;4987965;28;20569;-79
2023/04/05 03:59:35;;;;;;;8.73;4.28;;;-1.40;99.90;;;-2.91;100.00;98135.94;5007592;28;20156;-77
2023/04/05 04:02:03;;;;;;;5.80;3.65;;;-1.40;99.90;;;-2.92;100.00;98135.06;5006265;28;20539;-78
2023/04/05 04:04:33;;;;;;;5.57;3.40;;;-1.40;99.90;;;-2.91;100.00;98138.50;5002506;28;20047;-79
2023/04/05 04:07:00;;;;;;;6.03;3.45;;;-1.40;99.90;;;-2.91;100.00;98131.72;5010457;28;20120;-77
2023/04/05 04:09:28;;;;;;;4.50;3.33;;;-1.40;99.90;;;-2.90;100.00;98127.50;5005106;28;20050;-78
2023/04/05 04:11:56;;;;;;;6.93;3.17;;;-1.40;99.90;;;-2.99;100.00;98129.03;5007852;28;20050;-78
2023/04/05 04:14:24;;;;;;;8.60;3.90;;;-1.40;99.90;;;-3.02;100.00;98128.13;5011408;28;20137;-78
2023/04/05 04:16:51;;;;;;;9.20;3.63;;;-1.40;99.90;;;-3.05;100.00;98128.06;5013129;28;20085;-78
2023/04/05 04:19:18;;;;;;;6.40;4.28;;;-1.40;99.90;;;-3.16;100.00;98133.75;5007046;28;20377;-78
2023/04/05 04:21:50;;;;;;;6.88;3.95;;;-1.50;99.90;;;-3.35;100.00;98141.84;5007680;28;20046;-79
2023/04/05 04:24:18;;;;;;;7.18;4.10;;;-1.60;99.90;;;-3.37;100.00;98140.94;4978250;28;20153;-77
2023/04/05 04:26:47;;;;;;;7.90;4.85;;;-1.60;99.90;;;-3.20;100.00;98137.06;5005654;28;20053;-78
2023/04/05 04:29:16;;;;;;;8.38;4.80;;;-1.70;99.90;;;-3.21;100.00;98140.44;4993386;28;20569;-78
2023/04/05 04:31:44;;;;;;;8.63;4.50;;;-1.60;99.90;;;-3.40;100.00;98144.28;5006755;28;20835;-78
2023/04/05 04:34:12;;;;;;;8.52;4.55;;;-1.60;99.90;;;-3.55;100.00;98149.00;5005198;28;20053;-78
2023/04/05 04:36:41;;;;;;;8.27;4.50;;;-1.70;99.90;;;-3.44;100.00;98145.03;5007515;28;20054;-78
2023/04/05 04:39:12;;;;;;;9.32;4.70;;;-1.90;99.90;;;-3.37;100.00;98143.47;5006907;28;20068;-78
2023/04/05 04:41:45;;;;;;;9.05;4.95;;;-1.80;99.90;;;-3.34;100.00;98148.63;5024812;28;20397;-79
2023/04/05 04:44:14;;;;;;;10.57;5.57;;;-1.80;99.90;;;-3.36;100.00;98140.97;4992548;28;20500;-78
2023/04/05 04:46:44;;;;;;;7.60;4.50;;;-1.80;99.90;;;-3.48;100.00;98145.78;5014247;28;20042;-78
2023/04/05 04:49:12;;;;;;;13.30;4.50;;;-1.80;99.90;;;-3.42;100.00;98147.56;5002361;28;20547;-78
2023/04/05 04:51:39;;;;;;;9.60;4.63;;;-1.80;99.90;;;-3.35;100.00;98141.84;5005384;28;20741;-78
2023/04/05 04:54:06;;;;;;;9.32;4.38;;;-1.80;99.90;;;-3.14;100.00;98150.72;5006597;28;20046;-78
2023/04/05 04:56:33;;;;;;;13.18;4.88;;;-1.70;99.90;;;-3.09;100.00;98144.91;5005690;28;20458;-78
2023/04/05 04:59:00;;;;;;;7.93;4.50;;;-1.60;99.90;;;-2.99;100.00;98146.81;5003577;28;20054;-78
2023/04/05 05:01:28;;;;;;;8.98;4.72;;;-1.50;99.90;;;-3.01;100.00;98140.84;5006665;28;20567;-77
2023/04/05 05:03:56;;;;;;;8.80;4.93;;;-1.60;99.90;;;-2.99;100.00;98149.38;5006511;28;20058;-77
2023/04/05 05:06:23;;;;;;;8.68;4.15;;;-1.60;99.90;;;-3.20;100.00;98146.38;5005447;28;20137;-78
2023/04/05 05:08:50;;;;;;;7.53;4.53;;;-1.60;99.90;;;-3.30;100.00;98152.94;5016005;28;20639;-78
2023/04/05 05:11:18;;;;;;;9.13;4.72;;;-1.60;99.90;;;-3.21;100.00;98155.66;4991368;28;20508;-78
2023/04/05 05:13:45;;;;;;;10.50;5.47;;;-1.50;99.90;;;-3.13;100.00;98155.81;5005870;28;20053;-78
2023/04/05 05:16:17;;;;;;;9.85;4.88;;;-1.60;99.90;;;-3.06;100.00;98155.13;4991108;28;20105;-77
2023/04/05 05:18:46;;;;;;;10.15;5.82;;;-1.50;99.90;;;-3.08;100.00;98161.88;5007199;28;20046;-78
2023/04/05 05:21:14;;;;;;;12.63;6.28;;;-1.60;99.90;;;-3.13;100.00;98160.06;5008534;28;20129;-78
2023/04/05 05:23:41;;;;;;;9.15;5.22;;;-1.50;99.90;;;-3.17;100.00;98152.38;5006403;28;20057;-77
2023/04/05 05:26:08;;;;;;;10.77;5.35;;;-1.60;99.90;;;-3.18;100.00;98162.50;5010565;28;20054;-77
2023/04/05 05:28:35;;;;;;;9.65;5.32;;;-1.60;99.90;;;-3.11;100.00;98158.41;5008358;28;20048;-77
2023/04/05 05:31:04;;;;;;;6.57;4.70;;;-1.60;99.90;;;-3.05;100.00;98158.53;5006485;28;20117;-78
2023/04/05 05:33:32;;;;;;;8.35;5.13;;;-1.60;99.90;;;-3.19;100.00;98159.09;4991531;28;20114;-78
2023/04/05 05:36:02;;;;;;;7.82;4.60;;;-1.60;99.90;;;-3.12;100.00;98165.16;5013812;28;20113;-77
2023/04/05 05:38:30;;;;;;;8.23;4.15;;;-1.70;99.90;;;-3.15;100.00;98157.47;4999850;28;20046;-78
2023/04/05 05:40:57;;;;;;;9.63;4.80;;;-1.60;99.90;;;-2.95;100.00;98155.34;5005239;28;20052;-77
2023/04/05 05:43:25;;;;;;;9.73;4.60;;;-1.60;99.90;;;-2.78;100.00;98153.16;5003479;28;20094;-78
2023/04/05 05:45:52;;;;;;;8.82;5.18;;;-1.50;99.90;;;-2.93;100.00;98151.16;5004855;28;20738;-77
2023/04/05 05:48:20;;;;;;;7.65;4.55;;;-1.50;99.90;;;-3.01;100.00;98153.56;4985139;28;20161;-77
2023/04/05 05:50:49;;;;;;;9.20;5.55;;;-1.50;99.90;;;-2.82;100.00;98153.91;5004966;28;20083;-77
2023/04/05 05:53:16;;;;;;;9.25;4.70;;;-1.50;99.90;;;-2.68;100.00;98157.56;5005195;28;20042;-78
2023/04/05 05:55:43;;;;;;;7.72;5.20;;;-1.40;99.90;;;-2.66;100.00;98153.38;4971125;28;20054;-77
2023/04/05 05:58:10;;;;;;;8.82;5.57;;;-1.40;99.90;;;-2.69;100.00;98157.53;4986349;28;20045;-78
2023/04/05 06:00:37;;;;;;;12.35;6.13;;;-1.30;99.90;;;-2.68;100.00;98155.03;5003083;28;20129;-78
2023/04/05 06:03:05;;;;;;;10.35;5.22;;;-1.30;99.90;;;-2.59;100.00;98161.97;4997859;28;20073;-78
2023/04/05 06:05:35;;;;;;;11.00;6.65;;;-1.20;99.90;;;-2.74;100.00;98162.53;5004971;28;20072;-78
2023/04/05 06:08:03;;;;;;;9.40;5.35;;;-1.20;99.90;;;-2.59;100.00;98161.97;4989077;28;20046;-77
2023/04/05 06:10:30;;;;;;;11.02;5.72;;;-1.10;99.90;;;-2.45;100.00;98163.06;4981987;28;20152;-77
2023/04/05 06:12:57;;;;;;;11.70;5.22;;;-1.00;99.90;;;-2.29;100.00;98164.22;5004691;28;20049;-78
2023/04/05 06:15:26;;;;;;;10.50;5.35;;;-0.90;99.90;;;-2.04;100.00;98162.94;5002283;28;20064;-78
2023/04/05 06:17:53;;;;;;;9.45;5.05;;;-0.80;99.90;;;-1.77;100.00;98154.06;5004539;28;20137;-77
2023/04/05 06:20:20;;;;;;;10.60;6.10;;;-0.70;99.90;;;-1.79;100.00;98154.03;5007226;28;20053;-78
2023/04/05 06:22:47;;;;;;;7.13;4.97;;;-0.50;99.90;;;-1.61;100.00;98147.50;4982664;28;20053;-77
2023/04/05 06:25:14;;;;;;;7.38;5.18;;;-0.40;99.90;;;-1.39;100.00;98152.06;4989632;28;20137;-78
2023/04/05 06:27:44;;;;;;;8.68;4.95;;;-0.20;99.90;;;-1.03;100.00;98149.97;5013272;28;20528;-76
2023/04/05 06:30:12;;;;;;;8.57;4.88;;;0.00;99.90;;;-0.85;100.00;98148.50;5003080;28;20042;-78
2023/04/05 06:32:39;;;;;;;7.65;4.30;;;0.10;99.90;;;-0.59;100.00;98145.41;5002337;28;20146;-78
2023/04/05 06:35:07;;;;;;;9.13;5.03;;;0.30;99.90;;;-0.46;100.00;98137.06;5000911;28;20087;-78
2023/04/05 06:37:34;;;;;;;8.57;5.25;;;0.40;99.90;;;-0.32;100.00;98136.31;4987487;28;20058;-77
2023/04/05 06:40:01;;;;;;;7.88;5.43;;;0.60;99.90;;;-0.18;100.00;98136.44;5003376;28;20419;-78
2023/04/05 06:42:29;;;;;;;9.13;5.03;;;0.70;99.90;;;-0.02;100.00;98133.22;4986931;28;20054;-78
2023/04/05 06:44:57;;;;;;;9.70;4.95;;;0.90;99.90;;;0.17;100.00;98132.50;5003794;28;20081;-78
2023/04/05 06:47:24;;;;;;;8.45;4.72;;;1.00;99.90;;;0.40;100.00;98131.81;4985018;28;20046;-78
2023/04/05 06:49:52;;;;;;;9.43;4.78;;;1.10;99.90;;;0.54;100.00;98131.91;5004022;28;20769;-77
2023/04/05 06:52:19;;;;;;;8.85;5.10;;;1.30;99.90;;;0.68;100.00;98120.03;5003695;28;20136;-78
2023/04/05 06:54:46;;;;;;;8.48;5.40;;;1.50;99.90;;;0.86;100.00;98123.56;5002335;28;20058;-76
2023/04/05 06:57:13;;;;;;;8.48;5.30;;;1.60;99.90;;;0.82;100.00;98120.13;5005718;28;20058;-78
2023/04/05 06:59:41;;;;;;;10.50;5.10;;;1.80;99.90;;;0.99;100.00;98117.66;5003888;28;20643;-78
2023/04/05 07:02:07;;;;;;;8.00;4.82;;;1.90;99.90;;;1.01;100.00;98127.03;5002097;28;20050;-78
2023/04/05 07:04:36;;;;;;;8.38;4.95;;;2.00;99.90;;;1.21;100.00;98118.59;5008871;28;20471;-78
2023/04/05 07:07:04;;;;;;;9.52;5.10;;;2.20;99.90;;;1.31;100.00;98117.75;4988786;28;20054;-78
2023/04/05 07:09:32;;;;;;;7.53;5.18;;;2.20;99.90;;;1.40;100.00;98122.91;5005175;28;20049;-78
2023/04/05 07:12:00;;;;;;;10.30;4.88;;;2.40;99.90;;;1.63;100.00;98116.97;5007296;28;20076;-78
2023/04/05 07:14:32;;;;;;;8.20;5.10;;;2.50;99.90;;;1.63;100.00;98110.16;4991263;28;20050;-78
2023/04/05 07:17:00;;;;;;;10.63;4.95;;;2.60;99.90;;;1.74;100.00;98115.28;5003705;28;20121;-78
2023/04/05 07:19:27;;;;;;;11.82;4.93;;;2.70;99.90;;;1.70;100.00;98111.00;4990520;28;20060;-78
2023/04/05 07:21:55;;;;;;;8.98;4.85;;;2.80;99.90;;;1.78;100.00;98111.00;4991753;28;20054;-78
2023/04/05 07:24:23;;;;;;;9.05;4.75;;;2.90;99.90;;;1.90;100.00;98113.59;5008419;28;20092;-79
2023/04/05 07:26:50;;;;;;;10.38;5.68;;;2.90;99.90;;;2.08;100.00;98112.75;4991755;28;20153;-78
2023/04/05 07:29:17;;;;;;;8.45;4.95;;;3.00;99.90;;;2.04;100.00;98113.59;4990952;28;20122;-79
2023/04/05 07:31:46;;;;;;;10.00;5.15;;;3.00;99.90;;;2.13;100.00;98113.59;4992861;28;20053;-79
2023/04/05 07:34:13;;;;;;;6.13;4.30;;;3.10;99.90;;;2.37;100.00;98112.72;4976623;28;20057;-79
2023/04/05 07:36:40;;;;;;;11.77;4.38;;;3.20;99.90;;;2.46;100.00;98109.28;5005959;28;20137;-78
2023/04/05 07:39:10;;;;;;;7.20;4.45;;;3.40;99.90;;;2.58;100.00;98101.59;5006010;28;20049;-78
2023/04/05 07:41:38;;;;;;;7.65;4.43;;;3.50;99.90;;;2.66;100.00;98104.13;5005469;28;20128;-79
2023/04/05 07:44:07;;;;;;;7.32;4.20;;;3.60;99.90;;;2.83;100.00;98098.94;4994900;28;20052;-78
2023/04/05 07:46:34;;;;;;;10.85;4.75;;;3.70;99.90;;;2.50;100.00;98104.16;5007783;28;20054;-79
2023/04/05 07:49:01;;;;;;;9.80;4.80;;;3.60;99.90;;;2.75;100.00;98108.38;5004907;28;20501;-78
2023/04/05 07:51:28;;;;;;;9.98;4.45;;;3.70;99.90;;;2.66;100.00;98106.69;5008886;28;20049;-79
2023/04/05 07:53:57;;;;;;;15.07;4.63;;;3.80;99.90;;;2.79;100.00;98108.34;5008688;28;20202;-79
2023/04/05 07:56:27;;;;;;;9.45;3.83;;;3.70;99.90;;;2.77;100.00;98107.50;4992689;28;20504;-79
2023/04/05 07:58:55;;;;;;;8.70;5.03;;;3.80;99.90;;;2.84;100.00;98104.06;5010052;28;20060;-78
2023/04/05 08:01:26;;;;;;;10.35;4.72;;;3.90;99.90;;;3.23;100.00;98103.91;5010819;28;20539;-79
2023/04/05 08:03:56;;;;;;;8.75;4.28;;;4.00;99.90;;;3.84;100.00;98100.97;5008201;28;20053;-79
2023/04/05 08:06:23;;;;;;;11.00;4.75;;;4.10;99.90;;;4.33;100.00;98102.28;5005008;28;20445;-78
2023/04/05 08:08:50;;;;;;;8.70;4.25;;;4.40;99.90;;;4.82;100.00;98094.06;5009993;28;20049;-78
2023/04/05 08:11:17;;;;;;;7.18;3.83;;;4.60;99.90;;;5.29;100.00;98082.34;5009390;28;20081;-79
2023/04/05 08:13:46;;;;;;;9.68;4.20;;;5.00;99.90;;;6.16;100.00;98079.34;5015310;28;20535;-79
2023/04/05 08:16:14;;;;;;;6.35;3.70;;;5.50;99.90;;;6.51;100.00;98083.03;5008645;28;20046;-78
2023/04/05 08:18:41;;;;;;;8.38;4.40;;;6.10;99.90;;;6.07;100.00;98080.38;4989813;28;20130;-79
2023/04/05 08:21:08;;;;;;;7.25;4.15;;;6.80;99.90;;;6.17;100.00;98075.91;4992061;28;20053;-78
2023/04/05 08:23:35;;;;;;;6.53;3.80;;;7.60;99.90;;;6.56;100.00;98071.75;5004775;28;20161;-79
2023/04/05 08:26:02;;;;;;;5.70;3.55;;;8.00;99.90;;;6.35;100.00;98073.00;4990488;28;20061;-77
2023/04/05 08:28:30;;;;;;;8.43;3.80;;;8.30;98.20;;;6.67;100.00;98077.56;5005195;28;20057;-77
2023/04/05 08:30:57;;;;;;;7.97;4.00;;;9.00;97.60;;;7.24;100.00;98071.25;5007008;28;20045;-77
2023/04/05 08:33:25;;;;;;;7.82;3.90;;;9.50;96.30;;;6.47;100.00;98072.75;5008500;28;20062;-78
2023/04/05 08:35:52;;;;;;;8.23;3.83;;;10.10;93.80;;;7.29;100.00;98063.41;4982183;28;20128;-76
2023/04/05 08:38:20;;;;;;;6.57;3.42;;;10.00;93.90;;;6.91;100.00;98060.75;5007210;28;20126;-77
2023/04/05 08:40:48;;;;;;;5.88;3.20;;;9.50;92.40;;;8.11;100.00;98058.06;5009560;28;20125;-78
2023/04/05 08:43:56;;;;;;;5.53;2.63;;;10.40;93.00;;;7.67;100.00;98061.72;5008665;28;20100;-77
2023/04/05 08:46:25;;;;;;;6.72;3.08;;;11.00;90.80;;;7.76;100.00;98056.34;5003146;28;20046;-77
2023/04/05 08:48:52;;;;;;;6.10;2.55;;;11.10;89.30;;;7.97;100.00;98052.38;5010262;28;20046;-78
2023/04/05 08:51:21;;;;;;;6.72;2.80;;;11.20;89.20;;;8.65;100.00;98053.28;5021784;28;20052;-78
2023/04/05 08:53:49;;;;;;;5.43;2.40;;;11.60;89.10;;;8.55;100.00;98050.94;4992451;28;20512;-78
2023/04/05 08:56:25;;;;;;;4.82;2.10;;;11.70;88.20;;;8.13;99.30;98055.44;5003615;28;20141;-78
2023/04/05 08:59:05;;;;;;;3.45;2.00;;;11.60;85.50;;;8.75;97.98;98050.38;5003887;28;20065;-77
2023/04/05 09:01:37;;;;;;;4.53;2.20;;;11.70;84.80;;;9.20;96.24;98049.09;4989376;28;20461;-79
2023/04/05 09:04:26;;;;;;;4.50;2.30;;;12.00;86.70;;;9.75;97.03;98046.56;4989622;28;20054;-78
2023/04/05 09:06:57;;;;;;;5.15;1.95;;;12.30;86.00;;;8.78;92.26;98046.84;4990680;28;20086;-77
2023/04/05 09:09:24;;;;;;;4.25;2.03;;;12.20;81.50;;;9.58;89.88;98052.28;5022114;28;20101;-78
2023/04/05 09:11:52;;;;;;;3.55;2.05;;;12.00;81.90;;;9.42;90.59;98050.16;5005855;28;20492;-77
2023/04/05 09:14:20;;;;;;;4.28;1.85;;;12.00;83.20;;;9.77;91.79;98052.56;5021957;28;20132;-77
2023/04/05 09:16:47;;;;;;;4.22;1.70;;;11.90;84.10;;;9.41;89.05;98060.56;5005195;28;20617;-76
2023/04/05 09:19:15;;;;;;;3.33;1.95;;;12.10;81.30;;;9.68;86.21;98052.84;4986844;28;20050;-77
2023/04/05 09:22:03;;;;;;;5.25;1.80;;;12.10;81.50;;;9.05;83.17;98050.38;5016794;28;20065;-78
2023/04/05 09:24:35;;;;;;;4.85;2.00;;;11.70;79.30;;;8.89;83.53;98052.56;4992484;28;20054;-76
2023/04/05 09:27:12;;;;;;;6.90;2.47;;;11.00;79.60;;;8.91;87.69;98049.94;5006602;28;20054;-76
2023/04/05 09:29:46;;;;;;;6.15;2.72;;;11.00;82.70;;;10.36;90.16;98051.53;5016880;28;20062;-77
2023/04/05 09:32:20;;;;;;;9.23;3.00;;;11.50;83.20;;;9.98;87.86;98046.66;4987767;28;20058;-77
2023/04/05 09:34:47;;;;;;;5.80;2.60;;;12.00;83.20;;;10.89;84.21;98043.59;5008080;28;20805;-78
2023/04/05 09:37:21;;;;;;;6.80;2.33;;;12.20;81.30;;;11.76;80.23;98035.97;5006694;28;20050;-77
2023/04/05 09:39:50;;;;;;;5.82;2.63;;;12.70;81.80;;;10.35;80.57;98042.88;5007449;28;20046;-77
2023/04/05 09:42:21;;;;;;;4.88;2.22;;;12.80;80.40;;;10.26;78.82;98040.56;5007326;28;20046;-77
2023/04/05 09:45:01;;;;;;;4.30;1.88;;;12.60;79.20;;;10.33;77.87;98042.09;5006978;28;20046;-77
2023/04/05 09:47:33;;;;;;;5.82;2.72;;;12.20;78.60;;;10.75;81.86;98031.09;4989163;28;20084;-77
2023/04/05 09:50:23;;;;;;;11.00;4.73;;;12.30;80.40;;;10.76;82.16;98026.75;5007904;28;20058;-77
2023/04/05 09:52:51;;;;;;;9.57;2.47;;;12.60;81.10;;;11.09;80.96;98022.91;5001707;28;20066;-78
2023/04/05 09:55:28;;;;;;;8.30;2.50;;;12.90;80.00;;;10.99;79.89;98021.59;5008821;28;20049;-77
2023/04/05 09:57:56;;;;;;;5.70;2.33;;;13.10;79.80;;;11.49;80.88;98025.72;5008422;28;20535;-76
2023/04/05 10:00:24;;;;;;;5.72;2.67;;;12.80;79.50;;;10.55;80.89;98029.22;4991278;28;20152;-77
2023/04/05 10:02:55;;;;;;;4.90;2.42;;;12.70;80.30;;;11.56;81.57;98029.78;5004444;28;20132;-77
2023/04/05 10:05:26;;;;;;;6.00;2.30;;;12.60;81.50;;;11.09;75.38;98022.91;5007587;28;20616;-77
2023/04/05 10:07:55;;;;;;;3.67;1.77;;;12.80;78.00;;;11.33;76.65;98017.69;4991846;28;20065;-76
2023/04/05 10:10:23;;;;;;;4.32;1.75;;;12.90;79.50;;;11.52;75.12;98016.06;5005483;28;20493;-77
2023/04/05 10:12:53;;;;;;;5.88;2.38;;;12.90;76.60;;;12.79;70.42;98006.44;4988830;28;20504;-77
2023/04/05 10:15:22;;;;;;;3.35;1.88;;;12.60;76.90;;;11.44;68.22;98015.50;5006387;28;20049;-76
2023/04/05 10:18:02;;;;;;;3.47;1.65;;;12.70;76.00;;;11.89;73.16;98011.19;4988214;28;20046;-76
2023/04/05 10:20:32;;;;;;;5.45;2.33;;;13.10;77.60;;;11.01;67.19;98019.75;4984328;28;20086;-77
2023/04/05 10:23:12;;;;;;;4.22;2.22;;;12.40;74.30;;;11.68;68.52;98010.28;5003150;28;20057;-77
2023/04/05 10:25:53;;;;;;;5.28;2.00;;;12.30;75.30;;;11.02;70.22;98003.28;5004441;28;20373;-77